sensor_id;sensor_type;location;lat;lon;timestamp;P1;durP1;ratioP1;P2;durP2;ratioP2
29238;SDS011;16267;48.194;11.546;2023-08-06T00:01:31;1.65;;;1.17;;
29238;SDS011;16267;48.194;11.546;2023-08-06T00:03:57;2.95;;;1.35;;
29238;SDS011;16267;48.194;11.546;2023-08-06T00:06:24;2.50;;;1.33;;
29238;SDS011;16267;48.194;11.546;2023-08-06T00:08:49;2.13;;;1.13;;
29238;SDS011;16267;48.194;11.546;2023-08-06T00:11:15;2.15;;;1.10;;
29238;SDS011;16267;48.194;11.546;2023-08-06T00:13:41;1.90;;;0.80;;
29238;SDS011;16267;48.194;11.546;2023-08-06T00:16:10;2.75;;;1.00;;
29238;SDS011;16267;48.194;11.546;2023-08-06T00:18:38;1.83;;;1.20;;
29238;SDS011;16267;48.194;11.546;2023-08-06T00:21:04;2.88;;;1.42;;
29238;SDS011;16267;48.194;11.546;2023-08-06T00:23:29;2.28;;;1.15;;
29238;SDS011;16267;48.194;11.546;2023-08-06T00:25:55;2.65;;;1.40;;
29238;SDS011;16267;48.194;11.546;2023-08-06T00:28:21;1.92;;;0.85;;
29238;SDS011;16267;48.194;11.546;2023-08-06T00:30:51;2.15;;;0.93;;
29238;SDS011;16267;48.194;11.546;2023-08-06T00:33:19;2.08;;;1.23;;
29238;SDS011;16267;48.194;11.546;2023-08-06T00:35:45;1.35;;;1.15;;
29238;SDS011;16267;48.194;11.546;2023-08-06T00:38:11;1.40;;;0.90;;
29238;SDS011;16267;48.194;11.546;2023-08-06T00:40:37;1.17;;;0.82;;
29238;SDS011;16267;48.194;11.546;2023-08-06T00:43:03;1.17;;;0.77;;
29238;SDS011;16267;48.194;11.546;2023-08-06T00:45:29;0.80;;;0.70;;
29238;SDS011;16267;48.194;11.546;2023-08-06T00:47:56;0.88;;;0.68;;
29238;SDS011;16267;48.194;11.546;2023-08-06T00:50:21;1.27;;;0.80;;
29238;SDS011;16267;48.194;11.546;2023-08-06T00:52:51;1.35;;;0.68;;
29238;SDS011;16267;48.194;11.546;2023-08-06T00:55:17;0.98;;;0.75;;
29238;SDS011;16267;48.194;11.546;2023-08-06T00:57:43;1.33;;;0.75;;
29238;SDS011;16267;48.194;11.546;2023-08-06T01:00:09;2.08;;;0.75;;
29238;SDS011;16267;48.194;11.546;2023-08-06T01:02:36;1.25;;;0.70;;
29238;SDS011;16267;48.194;11.546;2023-08-06T01:05:02;1.33;;;0.70;;
29238;SDS011;16267;48.194;11.546;2023-08-06T01:13:06;1.00;;;0.82;;
29238;SDS011;16267;48.194;11.546;2023-08-06T01:15:47;2.00;;;0.93;;
29238;SDS011;16267;48.194;11.546;2023-08-06T01:18:19;1.55;;;0.93;;
29238;SDS011;16267;48.194;11.546;2023-08-06T01:20:45;1.48;;;0.95;;
29238;SDS011;16267;48.194;11.546;2023-08-06T01:23:11;1.20;;;0.70;;
29238;SDS011;16267;48.194;11.546;2023-08-06T01:25:40;1.88;;;0.90;;
29238;SDS011;16267;48.194;11.546;2023-08-06T01:31:07;1.45;;;0.98;;
29238;SDS011;16267;48.194;11.546;2023-08-06T01:33:43;1.10;;;0.82;;
29238;SDS011;16267;48.194;11.546;2023-08-06T01:36:12;2.00;;;1.20;;
29238;SDS011;16267;48.194;11.546;2023-08-06T01:38:42;1.48;;;0.88;;
29238;SDS011;16267;48.194;11.546;2023-08-06T01:41:07;1.00;;;0.60;;
29238;SDS011;16267;48.194;11.546;2023-08-06T01:43:33;1.30;;;1.00;;
29238;SDS011;16267;48.194;11.546;2023-08-06T01:45:59;1.60;;;1.15;;
29238;SDS011;16267;48.194;11.546;2023-08-06T01:48:24;1.23;;;0.75;;
29238;SDS011;16267;48.194;11.546;2023-08-06T01:50:50;1.00;;;0.80;;
29238;SDS011;16267;48.194;11.546;2023-08-06T01:53:16;0.98;;;0.77;;
29238;SDS011;16267;48.194;11.546;2023-08-06T01:55:47;1.83;;;0.98;;
29238;SDS011;16267;48.194;11.546;2023-08-06T01:58:15;0.90;;;0.80;;
29238;SDS011;16267;48.194;11.546;2023-08-06T02:00:41;1.63;;;0.80;;
29238;SDS011;16267;48.194;11.546;2023-08-06T02:03:07;1.60;;;0.95;;
29238;SDS011;16267;48.194;11.546;2023-08-06T02:05:33;1.80;;;1.10;;
29238;SDS011;16267;48.194;11.546;2023-08-06T02:07:58;2.10;;;1.23;;
29238;SDS011;16267;48.194;11.546;2023-08-06T02:10:24;2.85;;;1.17;;
29238;SDS011;16267;48.194;11.546;2023-08-06T02:12:50;1.10;;;0.80;;
29238;SDS011;16267;48.194;11.546;2023-08-06T02:15:15;1.05;;;0.80;;
29238;SDS011;16267;48.194;11.546;2023-08-06T02:17:41;1.58;;;1.05;;
29238;SDS011;16267;48.194;11.546;2023-08-06T02:20:07;1.25;;;0.90;;
29238;SDS011;16267;48.194;11.546;2023-08-06T02:22:33;1.25;;;0.70;;
29238;SDS011;16267;48.194;11.546;2023-08-06T02:24:59;1.85;;;1.25;;
29238;SDS011;16267;48.194;11.546;2023-08-06T02:27:25;0.90;;;0.70;;
29238;SDS011;16267;48.194;11.546;2023-08-06T02:29:50;2.05;;;1.13;;
29238;SDS011;16267;48.194;11.546;2023-08-06T02:32:16;1.33;;;0.82;;
29238;SDS011;16267;48.194;11.546;2023-08-06T02:34:42;1.00;;;0.73;;
29238;SDS011;16267;48.194;11.546;2023-08-06T02:37:08;0.77;;;0.75;;
29238;SDS011;16267;48.194;11.546;2023-08-06T02:39:33;2.97;;;1.05;;
29238;SDS011;16267;48.194;11.546;2023-08-06T02:42:00;1.90;;;1.00;;
29238;SDS011;16267;48.194;11.546;2023-08-06T02:44:29;1.40;;;0.90;;
29238;SDS011;16267;48.194;11.546;2023-08-06T02:46:55;1.75;;;1.35;;
29238;SDS011;16267;48.194;11.546;2023-08-06T02:49:20;0.80;;;0.80;;
29238;SDS011;16267;48.194;11.546;2023-08-06T02:51:46;1.27;;;0.80;;
29238;SDS011;16267;48.194;11.546;2023-08-06T02:54:12;0.95;;;0.70;;
29238;SDS011;16267;48.194;11.546;2023-08-06T02:56:37;1.17;;;0.73;;
29238;SDS011;16267;48.194;11.546;2023-08-06T02:59:03;1.08;;;0.80;;
29238;SDS011;16267;48.194;11.546;2023-08-06T03:01:29;1.02;;;0.80;;
29238;SDS011;16267;48.194;11.546;2023-08-06T03:03:55;1.35;;;0.70;;
29238;SDS011;16267;48.194;11.546;2023-08-06T03:06:20;0.63;;;0.50;;
29238;SDS011;16267;48.194;11.546;2023-08-06T03:08:46;0.60;;;0.47;;
29238;SDS011;16267;48.194;11.546;2023-08-06T03:11:12;0.80;;;0.70;;
29238;SDS011;16267;48.194;11.546;2023-08-06T03:13:38;1.05;;;0.63;;
29238;SDS011;16267;48.194;11.546;2023-08-06T03:16:03;1.13;;;0.77;;
29238;SDS011;16267;48.194;11.546;2023-08-06T03:18:29;1.13;;;0.80;;
29238;SDS011;16267;48.194;11.546;2023-08-06T03:20:55;1.33;;;0.80;;
29238;SDS011;16267;48.194;11.546;2023-08-06T03:23:21;0.95;;;0.70;;
29238;SDS011;16267;48.194;11.546;2023-08-06T03:25:47;1.45;;;1.00;;
29238;SDS011;16267;48.194;11.546;2023-08-06T03:28:13;0.75;;;0.57;;
29238;SDS011;16267;48.194;11.546;2023-08-06T03:30:39;0.90;;;0.75;;
29238;SDS011;16267;48.194;11.546;2023-08-06T03:33:05;0.93;;;0.63;;
29238;SDS011;16267;48.194;11.546;2023-08-06T03:35:30;2.08;;;0.88;;
29238;SDS011;16267;48.194;11.546;2023-08-06T03:37:56;0.30;;;0.30;;
29238;SDS011;16267;48.194;11.546;2023-08-06T03:40:22;0.85;;;0.75;;
29238;SDS011;16267;48.194;11.546;2023-08-06T03:42:47;0.95;;;0.60;;
29238;SDS011;16267;48.194;11.546;2023-08-06T03:45:13;0.60;;;0.60;;
29238;SDS011;16267;48.194;11.546;2023-08-06T03:47:39;0.93;;;0.77;;
29238;SDS011;16267;48.194;11.546;2023-08-06T03:50:05;0.68;;;0.60;;
29238;SDS011;16267;48.194;11.546;2023-08-06T03:52:31;1.65;;;0.77;;
29238;SDS011;16267;48.194;11.546;2023-08-06T03:54:57;0.77;;;0.57;;
29238;SDS011;16267;48.194;11.546;2023-08-06T03:57:22;2.30;;;0.80;;
29238;SDS011;16267;48.194;11.546;2023-08-06T03:59:48;0.65;;;0.60;;
29238;SDS011;16267;48.194;11.546;2023-08-06T04:02:14;1.30;;;0.93;;
29238;SDS011;16267;48.194;11.546;2023-08-06T04:04:39;2.10;;;1.05;;
29238;SDS011;16267;48.194;11.546;2023-08-06T04:07:05;1.50;;;0.95;;
29238;SDS011;16267;48.194;11.546;2023-08-06T04:09:31;1.00;;;0.70;;
29238;SDS011;16267;48.194;11.546;2023-08-06T04:11:56;1.25;;;0.90;;
29238;SDS011;16267;48.194;11.546;2023-08-06T04:14:23;1.50;;;0.90;;
29238;SDS011;16267;48.194;11.546;2023-08-06T04:16:51;1.35;;;0.80;;
29238;SDS011;16267;48.194;11.546;2023-08-06T04:19:16;0.90;;;0.57;;
29238;SDS011;16267;48.194;11.546;2023-08-06T04:21:42;0.80;;;0.63;;
29238;SDS011;16267;48.194;11.546;2023-08-06T04:24:08;0.85;;;0.65;;
29238;SDS011;16267;48.194;11.546;2023-08-06T04:26:33;0.85;;;0.60;;
29238;SDS011;16267;48.194;11.546;2023-08-06T04:28:59;0.98;;;0.60;;
29238;SDS011;16267;48.194;11.546;2023-08-06T04:31:25;1.13;;;0.60;;
29238;SDS011;16267;48.194;11.546;2023-08-06T04:33:50;1.05;;;0.68;;
29238;SDS011;16267;48.194;11.546;2023-08-06T04:36:16;0.85;;;0.57;;
29238;SDS011;16267;48.194;11.546;2023-08-06T04:38:42;1.02;;;0.93;;
29238;SDS011;16267;48.194;11.546;2023-08-06T04:41:10;3.47;;;0.68;;
29238;SDS011;16267;48.194;11.546;2023-08-06T04:43:36;0.88;;;0.57;;
29238;SDS011;16267;48.194;11.546;2023-08-06T04:46:02;1.13;;;0.73;;
29238;SDS011;16267;48.194;11.546;2023-08-06T04:48:28;0.43;;;0.40;;
29238;SDS011;16267;48.194;11.546;2023-08-06T04:50:53;2.67;;;1.20;;
29238;SDS011;16267;48.194;11.546;2023-08-06T04:53:19;1.08;;;0.60;;
29238;SDS011;16267;48.194;11.546;2023-08-06T04:55:45;1.38;;;0.65;;
29238;SDS011;16267;48.194;11.546;2023-08-06T04:58:11;1.58;;;0.63;;
29238;SDS011;16267;48.194;11.546;2023-08-06T05:00:38;0.40;;;0.40;;
29238;SDS011;16267;48.194;11.546;2023-08-06T05:03:06;0.50;;;0.45;;
29238;SDS011;16267;48.194;11.546;2023-08-06T05:05:32;1.20;;;0.57;;
29238;SDS011;16267;48.194;11.546;2023-08-06T05:07:58;1.67;;;1.08;;
29238;SDS011;16267;48.194;11.546;2023-08-06T05:10:24;0.35;;;0.35;;
29238;SDS011;16267;48.194;11.546;2023-08-06T05:12:51;1.52;;;0.50;;
29238;SDS011;16267;48.194;11.546;2023-08-06T05:15:17;0.93;;;0.70;;
29238;SDS011;16267;48.194;11.546;2023-08-06T05:17:43;1.73;;;1.15;;
29238;SDS011;16267;48.194;11.546;2023-08-06T05:20:09;1.27;;;0.60;;
29238;SDS011;16267;48.194;11.546;2023-08-06T05:22:36;0.95;;;0.63;;
29238;SDS011;16267;48.194;11.546;2023-08-06T05:25:01;0.47;;;0.47;;
29238;SDS011;16267;48.194;11.546;2023-08-06T05:27:27;2.50;;;0.90;;
29238;SDS011;16267;48.194;11.546;2023-08-06T05:29:54;0.75;;;0.40;;
29238;SDS011;16267;48.194;11.546;2023-08-06T05:32:21;1.15;;;0.40;;
29238;SDS011;16267;48.194;11.546;2023-08-06T05:34:47;1.13;;;0.75;;
29238;SDS011;16267;48.194;11.546;2023-08-06T05:37:13;0.68;;;0.45;;
29238;SDS011;16267;48.194;11.546;2023-08-06T05:39:39;0.50;;;0.50;;
29238;SDS011;16267;48.194;11.546;2023-08-06T05:42:04;0.73;;;0.50;;
29238;SDS011;16267;48.194;11.546;2023-08-06T05:44:30;1.17;;;0.70;;
29238;SDS011;16267;48.194;11.546;2023-08-06T05:46:56;1.08;;;0.70;;
29238;SDS011;16267;48.194;11.546;2023-08-06T05:49:22;0.68;;;0.65;;
29238;SDS011;16267;48.194;11.546;2023-08-06T05:51:47;1.75;;;1.08;;
29238;SDS011;16267;48.194;11.546;2023-08-06T05:54:13;1.00;;;0.70;;
29238;SDS011;16267;48.194;11.546;2023-08-06T05:56:39;0.40;;;0.40;;
29238;SDS011;16267;48.194;11.546;2023-08-06T05:59:05;0.70;;;0.52;;
29238;SDS011;16267;48.194;11.546;2023-08-06T06:01:30;1.30;;;0.80;;
29238;SDS011;16267;48.194;11.546;2023-08-06T06:03:56;1.10;;;0.60;;
29238;SDS011;16267;48.194;11.546;2023-08-06T06:06:22;0.85;;;0.52;;
29238;SDS011;16267;48.194;11.546;2023-08-06T06:08:47;0.55;;;0.40;;
29238;SDS011;16267;48.194;11.546;2023-08-06T06:11:15;1.55;;;0.63;;
29238;SDS011;16267;48.194;11.546;2023-08-06T06:13:41;0.98;;;0.60;;
29238;SDS011;16267;48.194;11.546;2023-08-06T06:16:07;1.45;;;0.73;;
29238;SDS011;16267;48.194;11.546;2023-08-06T06:18:32;0.73;;;0.57;;
29238;SDS011;16267;48.194;11.546;2023-08-06T06:20:58;1.63;;;0.75;;
29238;SDS011;16267;48.194;11.546;2023-08-06T06:23:24;1.17;;;0.47;;
29238;SDS011;16267;48.194;11.546;2023-08-06T06:25:49;0.98;;;0.57;;
29238;SDS011;16267;48.194;11.546;2023-08-06T06:28:17;1.25;;;0.68;;
29238;SDS011;16267;48.194;11.546;2023-08-06T06:30:43;0.77;;;0.57;;
29238;SDS011;16267;48.194;11.546;2023-08-06T06:33:09;0.80;;;0.63;;
29238;SDS011;16267;48.194;11.546;2023-08-06T06:35:34;1.38;;;0.60;;
29238;SDS011;16267;48.194;11.546;2023-08-06T06:38:00;1.45;;;0.77;;
29238;SDS011;16267;48.194;11.546;2023-08-06T06:40:27;0.57;;;0.50;;
29238;SDS011;16267;48.194;11.546;2023-08-06T06:42:53;2.08;;;0.98;;
29238;SDS011;16267;48.194;11.546;2023-08-06T06:45:19;0.43;;;0.43;;
29238;SDS011;16267;48.194;11.546;2023-08-06T06:47:44;0.93;;;0.52;;
29238;SDS011;16267;48.194;11.546;2023-08-06T06:50:10;0.90;;;0.40;;
29238;SDS011;16267;48.194;11.546;2023-08-06T06:52:36;0.68;;;0.50;;
29238;SDS011;16267;48.194;11.546;2023-08-06T06:55:02;1.27;;;0.70;;
29238;SDS011;16267;48.194;11.546;2023-08-06T06:57:28;0.82;;;0.75;;
29238;SDS011;16267;48.194;11.546;2023-08-06T06:59:54;1.05;;;0.95;;
29238;SDS011;16267;48.194;11.546;2023-08-06T07:02:20;3.35;;;0.43;;
29238;SDS011;16267;48.194;11.546;2023-08-06T07:04:46;0.90;;;0.70;;
29238;SDS011;16267;48.194;11.546;2023-08-06T07:07:12;0.20;;;0.20;;
29238;SDS011;16267;48.194;11.546;2023-08-06T07:09:37;0.30;;;0.30;;
29238;SDS011;16267;48.194;11.546;2023-08-06T07:12:03;0.70;;;0.38;;
29238;SDS011;16267;48.194;11.546;2023-08-06T07:14:29;0.30;;;0.30;;
29238;SDS011;16267;48.194;11.546;2023-08-06T07:16:55;0.20;;;0.20;;
29238;SDS011;16267;48.194;11.546;2023-08-06T07:19:21;0.20;;;0.20;;
29238;SDS011;16267;48.194;11.546;2023-08-06T07:21:47;0.82;;;0.30;;
29238;SDS011;16267;48.194;11.546;2023-08-06T07:24:12;0.40;;;0.40;;
29238;SDS011;16267;48.194;11.546;2023-08-06T07:26:38;0.20;;;0.20;;
29238;SDS011;16267;48.194;11.546;2023-08-06T07:29:04;0.20;;;0.20;;
29238;SDS011;16267;48.194;11.546;2023-08-06T07:31:29;0.30;;;0.30;;
29238;SDS011;16267;48.194;11.546;2023-08-06T07:33:55;0.50;;;0.50;;
29238;SDS011;16267;48.194;11.546;2023-08-06T07:36:21;0.40;;;0.28;;
29238;SDS011;16267;48.194;11.546;2023-08-06T07:38:47;0.35;;;0.35;;
29238;SDS011;16267;48.194;11.546;2023-08-06T07:41:16;0.20;;;0.20;;
29238;SDS011;16267;48.194;11.546;2023-08-06T07:43:42;0.80;;;0.20;;
29238;SDS011;16267;48.194;11.546;2023-08-06T07:46:08;0.20;;;0.13;;
29238;SDS011;16267;48.194;11.546;2023-08-06T07:48:33;0.85;;;0.30;;
29238;SDS011;16267;48.194;11.546;2023-08-06T07:50:59;1.42;;;0.70;;
29238;SDS011;16267;48.194;11.546;2023-08-06T07:53:25;0.20;;;0.20;;
29238;SDS011;16267;48.194;11.546;2023-08-06T07:55:57;0.83;;;0.30;;
29238;SDS011;16267;48.194;11.546;2023-08-06T07:58:24;0.30;;;0.30;;
29238;SDS011;16267;48.194;11.546;2023-08-06T08:00:50;0.32;;;0.30;;
29238;SDS011;16267;48.194;11.546;2023-08-06T08:03:17;0.40;;;0.35;;
29238;SDS011;16267;48.194;11.546;2023-08-06T08:05:43;0.20;;;0.20;;
29238;SDS011;16267;48.194;11.546;2023-08-06T08:08:09;0.35;;;0.20;;
29238;SDS011;16267;48.194;11.546;2023-08-06T08:10:35;0.55;;;0.20;;
29238;SDS011;16267;48.194;11.546;2023-08-06T08:13:03;0.10;;;0.10;;
29238;SDS011;16267;48.194;11.546;2023-08-06T08:15:29;0.90;;;0.30;;
29238;SDS011;16267;48.194;11.546;2023-08-06T08:17:56;0.70;;;0.38;;
29238;SDS011;16267;48.194;11.546;2023-08-06T08:20:23;0.20;;;0.20;;
29238;SDS011;16267;48.194;11.546;2023-08-06T08:22:48;0.22;;;0.22;;
29238;SDS011;16267;48.194;11.546;2023-08-06T08:25:15;0.57;;;0.35;;
29238;SDS011;16267;48.194;11.546;2023-08-06T08:27:41;0.35;;;0.20;;
29238;SDS011;16267;48.194;11.546;2023-08-06T08:30:07;0.50;;;0.25;;
29238;SDS011;16267;48.194;11.546;2023-08-06T08:32:33;0.20;;;0.20;;
29238;SDS011;16267;48.194;11.546;2023-08-06T08:34:59;0.20;;;0.20;;
29238;SDS011;16267;48.194;11.546;2023-08-06T08:37:24;0.43;;;0.25;;
29238;SDS011;16267;48.194;11.546;2023-08-06T08:39:50;0.22;;;0.20;;
29238;SDS011;16267;48.194;11.546;2023-08-06T08:42:17;0.20;;;0.20;;
29238;SDS011;16267;48.194;11.546;2023-08-06T08:44:43;0.10;;;0.10;;
29238;SDS011;16267;48.194;11.546;2023-08-06T08:47:10;0.77;;;0.77;;
29238;SDS011;16267;48.194;11.546;2023-08-06T08:49:37;0.10;;;0.10;;
29238;SDS011;16267;48.194;11.546;2023-08-06T08:52:04;0.20;;;0.20;;
29238;SDS011;16267;48.194;11.546;2023-08-06T08:54:35;0.93;;;0.20;;
29238;SDS011;16267;48.194;11.546;2023-08-06T08:57:04;0.20;;;0.20;;
29238;SDS011;16267;48.194;11.546;2023-08-06T08:59:32;0.20;;;0.20;;
29238;SDS011;16267;48.194;11.546;2023-08-06T09:02:00;0.65;;;0.20;;
29238;SDS011;16267;48.194;11.546;2023-08-06T09:04:27;0.20;;;0.20;;
29238;SDS011;16267;48.194;11.546;2023-08-06T09:06:56;0.17;;;0.17;;
29238;SDS011;16267;48.194;11.546;2023-08-06T09:09:33;0.10;;;0.10;;
29238;SDS011;16267;48.194;11.546;2023-08-06T09:12:06;0.10;;;0.10;;
29238;SDS011;16267;48.194;11.546;2023-08-06T09:14:39;0.10;;;0.10;;
29238;SDS011;16267;48.194;11.546;2023-08-06T09:17:05;0.10;;;0.10;;
29238;SDS011;16267;48.194;11.546;2023-08-06T09:19:31;0.20;;;0.20;;
29238;SDS011;16267;48.194;11.546;2023-08-06T09:21:58;0.17;;;0.10;;
29238;SDS011;16267;48.194;11.546;2023-08-06T09:24:24;0.10;;;0.10;;
29238;SDS011;16267;48.194;11.546;2023-08-06T09:26:51;0.22;;;0.15;;
29238;SDS011;16267;48.194;11.546;2023-08-06T09:29:17;0.10;;;0.10;;
29238;SDS011;16267;48.194;11.546;2023-08-06T09:31:43;0.32;;;0.30;;
29238;SDS011;16267;48.194;11.546;2023-08-06T09:34:14;0.10;;;0.10;;
29238;SDS011;16267;48.194;11.546;2023-08-06T09:36:56;0.10;;;0.10;;
29238;SDS011;16267;48.194;11.546;2023-08-06T09:39:29;0.10;;;0.10;;
29238;SDS011;16267;48.194;11.546;2023-08-06T09:41:56;0.10;;;0.10;;
29238;SDS011;16267;48.194;11.546;2023-08-06T09:44:24;0.10;;;0.10;;
29238;SDS011;16267;48.194;11.546;2023-08-06T09:46:53;0.10;;;0.10;;
29238;SDS011;16267;48.194;11.546;2023-08-06T09:49:21;0.10;;;0.10;;
29238;SDS011;16267;48.194;11.546;2023-08-06T09:51:52;0.30;;;0.10;;
29238;SDS011;16267;48.194;11.546;2023-08-06T09:54:22;0.20;;;0.20;;
29238;SDS011;16267;48.194;11.546;2023-08-06T09:56:48;0.10;;;0.10;;
29238;SDS011;16267;48.194;11.546;2023-08-06T09:59:16;0.10;;;0.10;;
29238;SDS011;16267;48.194;11.546;2023-08-06T10:01:43;0.98;;;0.52;;
29238;SDS011;16267;48.194;11.546;2023-08-06T10:04:10;0.22;;;0.10;;
29238;SDS011;16267;48.194;11.546;2023-08-06T10:06:38;0.47;;;0.20;;
29238;SDS011;16267;48.194;11.546;2023-08-06T10:09:04;0.10;;;0.10;;
29238;SDS011;16267;48.194;11.546;2023-08-06T10:11:30;0.10;;;0.10;;
29238;SDS011;16267;48.194;11.546;2023-08-06T10:16:39;0.10;;;0.10;;
29238;SDS011;16267;48.194;11.546;2023-08-06T10:19:07;0.10;;;0.10;;
29238;SDS011;16267;48.194;11.546;2023-08-06T10:21:38;0.10;;;0.10;;
29238;SDS011;16267;48.194;11.546;2023-08-06T10:24:06;0.95;;;0.17;;
29238;SDS011;16267;48.194;11.546;2023-08-06T10:26:36;0.10;;;0.10;;
29238;SDS011;16267;48.194;11.546;2023-08-06T10:29:02;0.10;;;0.10;;
29238;SDS011;16267;48.194;11.546;2023-08-06T10:32:03;0.10;;;0.10;;
29238;SDS011;16267;48.194;11.546;2023-08-06T10:37:22;0.10;;;0.10;;
29238;SDS011;16267;48.194;11.546;2023-08-06T10:39:51;0.10;;;0.10;;
29238;SDS011;16267;48.194;11.546;2023-08-06T10:42:36;0.10;;;0.10;;
29238;SDS011;16267;48.194;11.546;2023-08-06T10:45:14;1.05;;;0.60;;
29238;SDS011;16267;48.194;11.546;2023-08-06T10:47:45;0.10;;;0.10;;
29238;SDS011;16267;48.194;11.546;2023-08-06T10:50:15;0.10;;;0.10;;
29238;SDS011;16267;48.194;11.546;2023-08-06T10:52:46;0.10;;;0.10;;
29238;SDS011;16267;48.194;11.546;2023-08-06T10:55:12;0.10;;;0.10;;
29238;SDS011;16267;48.194;11.546;2023-08-06T10:57:39;0.10;;;0.10;;
29238;SDS011;16267;48.194;11.546;2023-08-06T11:00:05;0.10;;;0.10;;
29238;SDS011;16267;48.194;11.546;2023-08-06T11:02:36;0.10;;;0.10;;
29238;SDS011;16267;48.194;11.546;2023-08-06T11:05:09;0.10;;;0.10;;
29238;SDS011;16267;48.194;11.546;2023-08-06T11:07:36;0.03;;;0.03;;
29238;SDS011;16267;48.194;11.546;2023-08-06T11:10:06;0.65;;;0.20;;
29238;SDS011;16267;48.194;11.546;2023-08-06T11:12:34;0.10;;;0.10;;
29238;SDS011;16267;48.194;11.546;2023-08-06T11:15:01;0.10;;;0.10;;
29238;SDS011;16267;48.194;11.546;2023-08-06T11:17:28;0.20;;;0.20;;
29238;SDS011;16267;48.194;11.546;2023-08-06T11:19:59;0.10;;;0.10;;
29238;SDS011;16267;48.194;11.546;2023-08-06T11:22:26;0.10;;;0.10;;
29238;SDS011;16267;48.194;11.546;2023-08-06T11:24:53;0.10;;;0.10;;
29238;SDS011;16267;48.194;11.546;2023-08-06T11:27:20;0.10;;;0.10;;
29238;SDS011;16267;48.194;11.546;2023-08-06T11:29:45;0.10;;;0.10;;
29238;SDS011;16267;48.194;11.546;2023-08-06T11:32:11;0.10;;;0.10;;
29238;SDS011;16267;48.194;11.546;2023-08-06T11:34:40;0.17;;;0.10;;
29238;SDS011;16267;48.194;11.546;2023-08-06T11:37:06;0.13;;;0.10;;
29238;SDS011;16267;48.194;11.546;2023-08-06T11:39:36;0.08;;;0.08;;
29238;SDS011;16267;48.194;11.546;2023-08-06T11:42:04;0.10;;;0.10;;
29238;SDS011;16267;48.194;11.546;2023-08-06T11:44:33;0.10;;;0.10;;
29238;SDS011;16267;48.194;11.546;2023-08-06T11:47:04;0.80;;;0.55;;
29238;SDS011;16267;48.194;11.546;2023-08-06T11:49:47;0.15;;;0.10;;
29238;SDS011;16267;48.194;11.546;2023-08-06T11:52:21;0.10;;;0.10;;
29238;SDS011;16267;48.194;11.546;2023-08-06T11:55:01;0.00;;;0.00;;
29238;SDS011;16267;48.194;11.546;2023-08-06T11:57:44;0.10;;;0.10;;
29238;SDS011;16267;48.194;11.546;2023-08-06T12:00:11;0.10;;;0.10;;
29238;SDS011;16267;48.194;11.546;2023-08-06T12:02:39;0.10;;;0.10;;
29238;SDS011;16267;48.194;11.546;2023-08-06T12:05:13;0.10;;;0.10;;
29238;SDS011;16267;48.194;11.546;2023-08-06T12:07:46;0.25;;;0.25;;
29238;SDS011;16267;48.194;11.546;2023-08-06T12:10:17;0.10;;;0.10;;
29238;SDS011;16267;48.194;11.546;2023-08-06T12:13:11;0.10;;;0.10;;
29238;SDS011;16267;48.194;11.546;2023-08-06T12:15:56;0.10;;;0.10;;
29238;SDS011;16267;48.194;11.546;2023-08-06T12:18:22;0.10;;;0.10;;
29238;SDS011;16267;48.194;11.546;2023-08-06T12:20:51;0.10;;;0.10;;
29238;SDS011;16267;48.194;11.546;2023-08-06T12:26:14;0.08;;;0.08;;
29238;SDS011;16267;48.194;11.546;2023-08-06T12:28:40;0.10;;;0.10;;
29238;SDS011;16267;48.194;11.546;2023-08-06T12:34:09;0.10;;;0.10;;
29238;SDS011;16267;48.194;11.546;2023-08-06T12:36:45;0.10;;;0.10;;
29238;SDS011;16267;48.194;11.546;2023-08-06T12:39:14;0.10;;;0.10;;
29238;SDS011;16267;48.194;11.546;2023-08-06T12:42:33;0.10;;;0.10;;
29238;SDS011;16267;48.194;11.546;2023-08-06T12:45:06;0.10;;;0.10;;
29238;SDS011;16267;48.194;11.546;2023-08-06T12:51:07;0.55;;;0.20;;
29238;SDS011;16267;48.194;11.546;2023-08-06T12:53:40;0.10;;;0.10;;
29238;SDS011;16267;48.194;11.546;2023-08-06T12:56:30;0.10;;;0.10;;
29238;SDS011;16267;48.194;11.546;2023-08-06T12:59:08;0.10;;;0.10;;
29238;SDS011;16267;48.194;11.546;2023-08-06T13:02:07;0.10;;;0.10;;
29238;SDS011;16267;48.194;11.546;2023-08-06T13:04:35;0.10;;;0.10;;
29238;SDS011;16267;48.194;11.546;2023-08-06T13:07:01;0.25;;;0.20;;
29238;SDS011;16267;48.194;11.546;2023-08-06T13:09:27;0.10;;;0.10;;
29238;SDS011;16267;48.194;11.546;2023-08-06T13:11:53;0.10;;;0.10;;
29238;SDS011;16267;48.194;11.546;2023-08-06T13:14:19;0.10;;;0.10;;
29238;SDS011;16267;48.194;11.546;2023-08-06T13:16:44;0.10;;;0.10;;
29238;SDS011;16267;48.194;11.546;2023-08-06T13:19:10;0.10;;;0.10;;
29238;SDS011;16267;48.194;11.546;2023-08-06T13:24:07;0.10;;;0.10;;
29238;SDS011;16267;48.194;11.546;2023-08-06T13:26:34;0.25;;;0.25;;
29238;SDS011;16267;48.194;11.546;2023-08-06T13:29:00;0.10;;;0.10;;
29238;SDS011;16267;48.194;11.546;2023-08-06T13:31:27;0.10;;;0.10;;
29238;SDS011;16267;48.194;11.546;2023-08-06T13:33:54;0.00;;;0.00;;
29238;SDS011;16267;48.194;11.546;2023-08-06T13:36:22;0.10;;;0.10;;
29238;SDS011;16267;48.194;11.546;2023-08-06T13:38:50;0.30;;;0.30;;
29238;SDS011;16267;48.194;11.546;2023-08-06T13:41:16;0.17;;;0.10;;
29238;SDS011;16267;48.194;11.546;2023-08-06T13:43:42;0.10;;;0.10;;
29238;SDS011;16267;48.194;11.546;2023-08-06T13:46:09;0.10;;;0.10;;
29238;SDS011;16267;48.194;11.546;2023-08-06T13:48:38;0.10;;;0.10;;
29238;SDS011;16267;48.194;11.546;2023-08-06T13:51:04;0.10;;;0.10;;
29238;SDS011;16267;48.194;11.546;2023-08-06T13:53:30;0.10;;;0.10;;
29238;SDS011;16267;48.194;11.546;2023-08-06T13:55:56;0.08;;;0.08;;
29238;SDS011;16267;48.194;11.546;2023-08-06T13:58:22;0.10;;;0.10;;
29238;SDS011;16267;48.194;11.546;2023-08-06T14:00:50;0.10;;;0.10;;
29238;SDS011;16267;48.194;11.546;2023-08-06T14:05:49;0.10;;;0.10;;
29238;SDS011;16267;48.194;11.546;2023-08-06T14:08:17;0.10;;;0.10;;
29238;SDS011;16267;48.194;11.546;2023-08-06T14:10:44;0.13;;;0.10;;
29238;SDS011;16267;48.194;11.546;2023-08-06T14:13:21;0.17;;;0.10;;
29238;SDS011;16267;48.194;11.546;2023-08-06T14:15:47;3.13;;;0.55;;
29238;SDS011;16267;48.194;11.546;2023-08-06T14:18:13;0.15;;;0.15;;
29238;SDS011;16267;48.194;11.546;2023-08-06T14:20:41;0.20;;;0.20;;
29238;SDS011;16267;48.194;11.546;2023-08-06T14:23:16;0.10;;;0.10;;
29238;SDS011;16267;48.194;11.546;2023-08-06T14:25:45;0.20;;;0.20;;
29238;SDS011;16267;48.194;11.546;2023-08-06T14:28:11;0.20;;;0.20;;
29238;SDS011;16267;48.194;11.546;2023-08-06T14:30:37;0.10;;;0.10;;
29238;SDS011;16267;48.194;11.546;2023-08-06T14:33:03;0.10;;;0.10;;
29238;SDS011;16267;48.194;11.546;2023-08-06T14:35:28;0.30;;;0.30;;
29238;SDS011;16267;48.194;11.546;2023-08-06T14:37:54;0.75;;;0.57;;
29238;SDS011;16267;48.194;11.546;2023-08-06T14:40:20;0.20;;;0.20;;
29238;SDS011;16267;48.194;11.546;2023-08-06T14:42:45;0.20;;;0.20;;
29238;SDS011;16267;48.194;11.546;2023-08-06T14:45:11;0.17;;;0.17;;
29238;SDS011;16267;48.194;11.546;2023-08-06T14:47:37;0.90;;;0.63;;
29238;SDS011;16267;48.194;11.546;2023-08-06T14:50:03;0.10;;;0.10;;
29238;SDS011;16267;48.194;11.546;2023-08-06T14:52:29;0.30;;;0.10;;
29238;SDS011;16267;48.194;11.546;2023-08-06T14:54:56;0.20;;;0.10;;
29238;SDS011;16267;48.194;11.546;2023-08-06T14:57:22;0.32;;;0.20;;
29238;SDS011;16267;48.194;11.546;2023-08-06T14:59:52;0.52;;;0.20;;
29238;SDS011;16267;48.194;11.546;2023-08-06T15:02:19;0.15;;;0.15;;
29238;SDS011;16267;48.194;11.546;2023-08-06T15:04:44;0.65;;;0.20;;